Time;durP1;ratioP1;P1;durP2;ratioP2;P2;SDS_P1;SDS_P2;PMS_P1;PMS_P2;Temp;Humidity;BMP_temperature;BMP_pressure;BME280_temperature;BME280_humidity;BME280_pressure;Samples;Min_cycle;Max_cycle;Signal;HPM_P1;HPM_P2
2022/01/29 00:00:01;;;;;;;22.77;12.37;;;5.30;87.40;;;;;;5116023;28;20244;-90
2022/01/29 00:02:26;;;;;;;30.50;15.30;;;5.30;87.50;;;;;;5115532;28;20657;-89
2022/01/29 00:04:52;;;;;;;25.40;15.27;;;5.30;87.60;;;;;;5114518;28;20179;-90
2022/01/29 00:07:17;;;;;;;28.57;10.87;;;5.30;87.50;;;;;;5114498;28;20183;-90
2022/01/29 00:09:44;;;;;;;30.70;16.60;;;5.30;87.50;;;;;;5114352;28;20521;-90
2022/01/29 00:12:10;;;;;;;37.33;18.03;;;5.40;87.40;;;;;;5115805;28;20260;-90
2022/01/29 00:14:37;;;;;;;32.43;17.90;;;5.40;87.40;;;;;;5114262;28;20204;-90
2022/01/29 00:17:03;;;;;;;36.10;19.57;;;5.40;87.40;;;;;;5115592;28;20169;-90
2022/01/29 00:19:28;;;;;;;32.17;15.40;;;5.40;87.60;;;;;;5115362;28;20179;-90
2022/01/29 00:21:54;;;;;;;24.70;14.37;;;5.40;87.80;;;;;;5115243;28;20192;-89
2022/01/29 00:24:20;;;;;;;35.67;16.93;;;5.40;87.80;;;;;;5114447;28;20176;-90
2022/01/29 00:26:45;;;;;;;30.93;15.63;;;5.40;87.90;;;;;;5115089;28;20172;-89
2022/01/29 00:29:19;;;;;;;41.27;20.10;;;5.50;87.80;;;;;;5114014;28;20274;-90
2022/01/29 00:31:44;;;;;;;30.47;18.90;;;5.50;87.80;;;;;;5113865;28;20200;-90
2022/01/29 00:34:10;;;;;;;30.67;18.43;;;5.50;87.90;;;;;;5115097;27;20653;-90
2022/01/29 00:36:36;;;;;;;34.80;18.80;;;5.50;88.20;;;;;;5114949;28;20173;-89
2022/01/29 00:39:02;;;;;;;39.20;23.17;;;5.50;88.30;;;;;;5114526;28;20169;-90
2022/01/29 00:41:27;;;;;;;41.37;20.87;;;5.50;88.50;;;;;;5113567;28;20238;-89
2022/01/29 00:43:53;;;;;;;32.70;16.90;;;5.50;88.80;;;;;;5114215;28;20172;-89
2022/01/29 00:46:18;;;;;;;36.30;22.63;;;5.40;89.30;;;;;;5113633;28;20210;-89
2022/01/29 00:48:44;;;;;;;41.97;23.27;;;5.50;89.50;;;;;;5113753;28;20176;-90
2022/01/29 00:51:09;;;;;;;36.47;18.30;;;5.40;89.70;;;;;;5113440;28;20254;-89
2022/01/29 00:53:35;;;;;;;42.10;22.53;;;5.50;89.90;;;;;;5113176;28;20252;-90
2022/01/29 00:56:06;;;;;;;34.70;19.90;;;5.30;90.50;;;;;;5115029;28;20166;-91
2022/01/29 00:58:32;;;;;;;34.83;20.47;;;5.40;90.70;;;;;;5114036;28;20171;-91
2022/01/29 01:00:58;;;;;;;46.93;24.30;;;5.40;90.80;;;;;;5114807;28;20264;-91
2022/01/29 01:03:24;;;;;;;31.83;20.60;;;5.40;90.80;;;;;;5113271;28;20163;-90
2022/01/29 01:05:49;;;;;;;42.23;24.23;;;5.40;90.90;;;;;;5113641;28;20268;-90
2022/01/29 01:08:15;;;;;;;46.57;28.87;;;5.40;91.10;;;;;;5114770;28;20660;-90
2022/01/29 01:10:41;;;;;;;35.97;24.83;;;5.40;91.10;;;;;;5114807;28;20235;-91
2022/01/29 01:13:06;;;;;;;28.27;17.80;;;5.40;91.40;;;;;;5113250;28;20201;-91
2022/01/29 01:15:32;;;;;;;46.33;29.37;;;5.40;91.60;;;;;;5113201;28;20175;-90
2022/01/29 01:17:57;;;;;;;35.93;20.37;;;5.40;91.70;;;;;;5114597;28;20181;-90
2022/01/29 01:20:23;;;;;;;50.00;29.97;;;5.40;91.90;;;;;;5114355;28;20560;-90
2022/01/29 01:22:48;;;;;;;53.57;32.57;;;5.40;92.00;;;;;;5113219;28;20641;-90
2022/01/29 01:25:14;;;;;;;48.00;28.97;;;5.40;92.10;;;;;;5113070;28;20652;-91
2022/01/29 01:27:39;;;;;;;47.23;28.03;;;5.40;92.20;;;;;;5114678;28;20243;-90
2022/01/29 01:30:06;;;;;;;55.03;29.80;;;5.40;92.20;;;;;;5113305;28;20206;-91
2022/01/29 01:32:32;;;;;;;50.70;31.07;;;5.40;92.30;;;;;;5114054;27;20701;-90
2022/01/29 01:35:07;;;;;;;45.00;29.87;;;5.40;92.40;;;;;;5113038;28;20214;-91
2022/01/29 01:37:56;;;;;;;52.37;34.17;;;5.40;92.50;;;;;;5114365;28;20166;-92
2022/01/29 01:40:23;;;;;;;37.20;24.17;;;5.40;92.60;;;;;;5116023;27;20703;-93
2022/01/29 01:42:48;;;;;;;43.20;30.23;;;5.40;92.70;;;;;;5117510;28;20207;-93
2022/01/29 01:45:14;;;;;;;31.97;20.70;;;5.40;92.80;;;;;;5116257;28;20180;-92
2022/01/29 01:47:40;;;;;;;48.80;30.83;;;5.50;92.90;;;;;;5114564;28;20272;-92
2022/01/29 01:50:08;;;;;;;54.03;32.93;;;5.50;92.80;;;;;;5113479;28;20294;-91
2022/01/29 01:52:33;;;;;;;42.47;28.87;;;5.50;92.80;;;;;;5112530;28;20219;-91
2022/01/29 01:54:59;;;;;;;49.80;29.17;;;5.50;92.90;;;;;;5112688;28;20571;-91
2022/01/29 01:57:24;;;;;;;56.80;34.20;;;5.60;92.90;;;;;;5112923;28;20642;-91
2022/01/29 01:59:50;;;;;;;50.93;32.20;;;5.50;92.90;;;;;;5113471;28;20176;-91
2022/01/29 02:02:16;;;;;;;50.23;29.20;;;5.60;92.90;;;;;;5114452;28;20177;-93
2022/01/29 02:04:41;;;;;;;59.77;36.30;;;5.50;93.00;;;;;;5114912;28;20550;-91
2022/01/29 02:07:07;;;;;;;50.03;32.23;;;5.60;93.20;;;;;;5112946;28;20754;-91
2022/01/29 02:09:33;;;;;;;51.73;30.23;;;5.60;93.20;;;;;;5114062;28;20176;-91
2022/01/29 02:12:02;;;;;;;62.77;34.70;;;5.60;93.30;;;;;;5112834;28;20237;-91
2022/01/29 02:14:29;;;;;;;49.30;27.87;;;5.60;93.50;;;;;;5116269;28;20745;-92
2022/01/29 02:16:55;;;;;;;55.77;36.27;;;5.60;93.60;;;;;;5118121;28;20170;-91
2022/01/29 02:19:21;;;;;;;53.77;34.53;;;5.60;93.60;;;;;;5118125;28;20184;-91
2022/01/29 02:21:47;;;;;;;41.10;25.00;;;5.60;93.60;;;;;;5117088;28;20268;-91
2022/01/29 02:24:13;;;;;;;52.87;29.70;;;5.60;93.60;;;;;;5116893;28;20177;-91
2022/01/29 02:26:39;;;;;;;54.17;32.00;;;5.70;93.70;;;;;;5116815;28;20181;-92
2022/01/29 02:29:04;;;;;;;43.00;24.47;;;5.70;93.70;;;;;;5117116;28;20178;-91
2022/01/29 02:31:30;;;;;;;58.23;33.13;;;5.70;93.80;;;;;;5118191;28;20282;-91
2022/01/29 02:33:56;;;;;;;60.80;38.73;;;5.70;93.80;;;;;;5116691;28;20203;-91
2022/01/29 02:36:22;;;;;;;59.63;35.60;;;5.70;93.90;;;;;;5116278;28;20207;-91
2022/01/29 02:38:48;;;;;;;58.30;35.27;;;5.70;93.90;;;;;;5116582;28;20643;-91
2022/01/29 02:41:13;;;;;;;61.33;37.50;;;5.70;94.00;;;;;;5116370;28;20287;-91
2022/01/29 02:43:49;;;;;;;49.93;28.17;;;5.70;94.00;;;;;;5116364;28;20181;-92
2022/01/29 02:48:48;;;;;;;64.37;35.83;;;5.70;94.10;;;;;;5117465;28;20682;-91
2022/01/29 02:51:14;;;;;;;59.00;36.10;;;5.70;94.20;;;;;;5116200;28;20204;-91
2022/01/29 02:53:39;;;;;;;61.37;37.73;;;5.80;94.20;;;;;;5115844;28;20230;-91
2022/01/29 02:56:05;;;;;;;55.77;32.30;;;5.80;94.10;;;;;;5116491;28;20639;-92
2022/01/29 02:58:31;;;;;;;47.47;27.50;;;5.80;94.20;;;;;;5116249;28;20208;-91
2022/01/29 03:00:57;;;;;;;49.90;30.90;;;5.70;94.20;;;;;;5116924;28;20246;-91
2022/01/29 03:03:22;;;;;;;58.63;33.93;;;5.80;94.20;;;;;;5115961;28;20276;-91
2022/01/29 03:05:48;;;;;;;56.77;32.70;;;5.80;94.30;;;;;;5116067;28;20205;-91
2022/01/29 03:08:13;;;;;;;48.97;27.90;;;5.80;94.40;;;;;;5115850;28;20653;-91
2022/01/29 03:10:39;;;;;;;61.87;35.87;;;5.80;94.40;;;;;;5115666;28;20203;-91
2022/01/29 03:13:05;;;;;;;59.87;37.67;;;5.80;94.40;;;;;;5117026;28;20245;-91
2022/01/29 03:15:30;;;;;;;62.80;34.37;;;5.80;94.50;;;;;;5115652;28;20181;-91
2022/01/29 03:17:56;;;;;;;67.33;38.17;;;5.80;94.50;;;;;;5115915;28;20538;-91
2022/01/29 03:20:22;;;;;;;56.73;32.77;;;5.80;94.50;;;;;;5115410;28;20606;-91
2022/01/29 03:22:47;;;;;;;58.63;36.83;;;5.80;94.50;;;;;;5117146;28;20177;-91
2022/01/29 03:25:13;;;;;;;60.43;36.27;;;5.80;94.60;;;;;;5115300;28;20272;-92
2022/01/29 03:27:39;;;;;;;55.03;32.40;;;5.90;94.60;;;;;;5115470;28;20174;-92
2022/01/29 03:30:06;;;;;;;46.47;26.67;;;5.90;94.60;;;;;;5115710;28;20678;-92
2022/01/29 03:32:32;;;;;;;48.90;28.60;;;5.90;94.60;;;;;;5115257;28;20290;-92
2022/01/29 03:34:57;;;;;;;46.33;26.77;;;5.90;94.60;;;;;;5115568;28;20200;-91
2022/01/29 03:37:23;;;;;;;57.17;34.13;;;5.90;94.60;;;;;;5115266;28;20173;-92
2022/01/29 03:39:49;;;;;;;59.87;34.07;;;5.90;94.60;;;;;;5115120;28;20177;-91
2022/01/29 03:42:15;;;;;;;56.00;32.57;;;5.90;94.60;;;;;;5115106;28;20646;-92
2022/01/29 03:44:41;;;;;;;54.90;32.13;;;6.00;94.60;;;;;;5115406;28;20172;-92
2022/01/29 03:47:07;;;;;;;58.57;36.70;;;6.00;94.60;;;;;;5116478;28;20177;-91
2022/01/29 03:49:33;;;;;;;56.27;35.60;;;6.00;94.60;;;;;;5116240;28;20199;-91
2022/01/29 03:51:58;;;;;;;56.60;34.43;;;6.00;94.70;;;;;;5114635;28;20217;-92
2022/01/29 03:54:24;;;;;;;48.90;31.17;;;6.00;94.70;;;;;;5115103;28;20183;-92
2022/01/29 03:56:49;;;;;;;50.83;28.10;;;6.00;94.80;;;;;;5114868;28;20285;-91
2022/01/29 03:59:15;;;;;;;55.80;30.53;;;6.10;94.80;;;;;;5114713;28;20200;-91
2022/01/29 04:01:41;;;;;;;37.83;22.80;;;6.00;94.80;;;;;;5115864;28;20193;-91
2022/01/29 04:04:06;;;;;;;57.83;34.20;;;6.10;94.90;;;;;;5114744;28;20199;-92
2022/01/29 04:06:32;;;;;;;44.20;29.13;;;6.10;94.90;;;;;;5114747;28;20272;-92
2022/01/29 04:09:02;;;;;;;41.37;28.07;;;6.10;94.80;;;;;;5114685;28;20205;-92
2022/01/29 04:11:28;;;;;;;50.10;29.07;;;6.20;94.90;;;;;;5114704;28;20208;-91
2022/01/29 04:13:53;;;;;;;53.27;32.80;;;6.20;94.90;;;;;;5115813;28;20283;-91
2022/01/29 04:16:19;;;;;;;44.13;26.97;;;6.20;94.90;;;;;;5114917;28;20178;-92
2022/01/29 04:18:45;;;;;;;62.20;39.37;;;6.30;94.90;;;;;;5114450;28;20182;-91
2022/01/29 04:21:10;;;;;;;55.63;32.80;;;6.20;94.90;;;;;;5114267;28;20567;-92
2022/01/29 04:23:36;;;;;;;58.57;36.30;;;6.20;94.90;;;;;;5114366;28;20188;-92
2022/01/29 04:26:04;;;;;;;42.20;25.13;;;6.30;95.00;;;;;;5115556;28;20200;-91
2022/01/29 04:28:35;;;;;;;53.63;33.13;;;6.30;95.10;;;;;;5114181;28;20654;-91
2022/01/29 04:31:06;;;;;;;57.63;34.63;;;6.30;95.10;;;;;;5114208;28;20211;-91
2022/01/29 04:33:32;;;;;;;46.07;26.23;;;6.40;95.10;;;;;;5114867;28;20197;-91
2022/01/29 04:36:03;;;;;;;60.00;35.80;;;6.40;95.20;;;;;;5113564;28;20672;-92
2022/01/29 04:38:29;;;;;;;53.10;31.10;;;6.30;95.20;;;;;;5113927;28;20222;-91
2022/01/29 04:40:56;;;;;;;54.27;33.80;;;6.40;95.20;;;;;;5113984;28;20270;-91
2022/01/29 04:43:22;;;;;;;60.03;34.20;;;6.40;95.20;;;;;;5113778;28;20174;-91
2022/01/29 04:45:48;;;;;;;69.07;40.70;;;6.50;95.30;;;;;;5113953;28;20234;-91
2022/01/29 04:48:14;;;;;;;57.77;33.97;;;6.50;95.30;;;;;;5114997;28;20631;-92
2022/01/29 04:50:39;;;;;;;58.23;34.83;;;6.40;95.30;;;;;;5114261;28;20201;-91
2022/01/29 04:53:05;;;;;;;64.20;36.60;;;6.50;95.30;;;;;;5113914;28;20247;-92
2022/01/29 04:55:32;;;;;;;69.10;39.90;;;6.50;95.30;;;;;;5113885;28;20238;-91
2022/01/29 04:57:58;;;;;;;71.93;41.07;;;6.50;95.40;;;;;;5114244;28;20268;-91
2022/01/29 05:00:24;;;;;;;39.97;22.77;;;6.60;95.30;;;;;;5115353;28;20242;-91
2022/01/29 05:02:52;;;;;;;56.30;33.23;;;6.60;95.40;;;;;;5113662;28;20181;-92
2022/01/29 05:05:17;;;;;;;65.37;39.93;;;6.60;95.30;;;;;;5115254;28;20177;-92
2022/01/29 05:07:43;;;;;;;52.93;31.63;;;6.60;95.40;;;;;;5113584;28;20185;-91
2022/01/29 05:10:10;;;;;;;68.17;38.60;;;6.60;95.30;;;;;;5113730;28;20558;-91
2022/01/29 05:12:51;;;;;;;64.73;39.97;;;6.60;95.30;;;;;;5114722;28;20200;-92
2022/01/29 05:15:26;;;;;;;51.63;27.70;;;6.60;95.30;;;;;;5113476;28;20170;-92
2022/01/29 05:28:49;;;;;;;51.23;32.70;;;6.80;95.30;;;;;;5115138;28;20169;-91
2022/01/29 05:31:14;;;;;;;58.40;32.93;;;6.80;95.30;;;;;;5113489;28;20197;-91
2022/01/29 05:33:40;;;;;;;60.57;37.10;;;6.80;95.20;;;;;;5113240;28;20622;-91
2022/01/29 05:36:06;;;;;;;47.37;28.33;;;6.80;95.20;;;;;;5114457;28;20174;-91
2022/01/29 05:38:31;;;;;;;42.40;23.80;;;6.80;95.20;;;;;;5113043;28;20593;-92
2022/01/29 05:40:57;;;;;;;53.20;31.90;;;6.80;95.20;;;;;;5114430;28;20256;-92
2022/01/29 05:43:23;;;;;;;34.50;20.70;;;6.90;95.20;;;;;;5113086;28;20201;-91
2022/01/29 05:45:49;;;;;;;46.13;27.50;;;6.90;95.20;;;;;;5112864;28;20178;-92
2022/01/29 05:48:14;;;;;;;37.47;25.53;;;7.00;95.10;;;;;;5112595;28;20185;-91
2022/01/29 05:50:40;;;;;;;16.97;11.43;;;7.00;95.10;;;;;;5113201;28;20263;-91
2022/01/29 05:53:06;;;;;;;42.03;25.37;;;7.00;95.10;;;;;;5112584;28;20213;-91
2022/01/29 05:55:31;;;;;;;35.87;24.43;;;7.00;95.00;;;;;;5112742;28;20174;-92
2022/01/29 05:57:57;;;;;;;32.33;19.40;;;7.00;95.10;;;;;;5113100;28;20222;-91
2022/01/29 06:00:22;;;;;;;34.97;20.60;;;7.00;95.00;;;;;;5112653;28;20284;-92
2022/01/29 06:03:01;;;;;;;42.67;26.17;;;7.10;95.00;;;;;;5112758;28;20181;-92
2022/01/29 06:05:27;;;;;;;45.07;26.20;;;7.10;95.00;;;;;;5113389;28;20191;-92
2022/01/29 06:07:52;;;;;;;41.33;27.93;;;7.10;95.00;;;;;;5113290;28;20208;-91
2022/01/29 06:10:18;;;;;;;32.17;18.07;;;7.10;94.90;;;;;;5114251;28;20722;-91
2022/01/29 06:12:43;;;;;;;34.80;20.37;;;7.20;94.90;;;;;;5112428;28;20197;-92
2022/01/29 06:15:11;;;;;;;39.97;24.77;;;7.20;94.90;;;;;;5113585;28;20177;-92
2022/01/29 06:17:38;;;;;;;32.63;22.57;;;7.20;94.90;;;;;;5112787;28;20174;-92
2022/01/29 06:20:04;;;;;;;30.63;17.43;;;7.20;94.90;;;;;;5112739;28;20290;-91
2022/01/29 06:22:29;;;;;;;37.23;23.77;;;7.30;95.00;;;;;;5112766;28;20174;-91
2022/01/29 06:24:55;;;;;;;46.40;30.17;;;7.30;94.90;;;;;;5112610;28;20614;-91
2022/01/29 06:27:20;;;;;;;30.27;20.13;;;7.30;94.90;;;;;;5114025;28;20170;-92
2022/01/29 06:29:46;;;;;;;50.80;30.60;;;7.30;95.00;;;;;;5112652;28;20200;-92
2022/01/29 06:32:12;;;;;;;39.20;22.57;;;7.30;95.10;;;;;;5112459;28;20209;-92
2022/01/29 06:34:37;;;;;;;55.30;31.37;;;7.30;95.10;;;;;;5113355;28;20170;-91
2022/01/29 06:37:03;;;;;;;42.37;26.87;;;7.40;95.10;;;;;;5113760;28;20627;-91
2022/01/29 06:39:28;;;;;;;50.17;28.73;;;7.40;95.20;;;;;;5112708;28;20219;-92
2022/01/29 06:41:54;;;;;;;42.53;26.47;;;7.40;95.20;;;;;;5112407;28;20563;-91
2022/01/29 06:44:19;;;;;;;31.27;19.87;;;7.40;95.20;;;;;;5112348;28;20522;-92
2022/01/29 06:46:45;;;;;;;51.23;31.40;;;7.50;95.20;;;;;;5112325;28;20654;-92
2022/01/29 06:49:10;;;;;;;46.43;26.57;;;7.50;95.20;;;;;;5112503;28;20822;-91
2022/01/29 06:51:36;;;;;;;51.10;32.67;;;7.50;95.20;;;;;;5112156;28;20193;-91
2022/01/29 06:54:02;;;;;;;53.53;31.87;;;7.50;95.20;;;;;;5113431;28;20189;-91
2022/01/29 06:56:27;;;;;;;32.93;18.40;;;7.40;95.20;;;;;;5112831;28;20228;-92
2022/01/29 06:58:53;;;;;;;47.07;23.43;;;7.50;95.30;;;;;;5112351;28;20643;-92
2022/01/29 07:01:18;;;;;;;23.00;16.77;;;7.50;95.30;;;;;;5117075;28;20269;-92
2022/01/29 07:03:44;;;;;;;42.97;30.10;;;7.50;95.30;;;;;;5115914;28;20592;-92
2022/01/29 07:06:10;;;;;;;35.23;22.17;;;7.60;95.30;;;;;;5115741;28;20223;-92
2022/01/29 07:08:38;;;;;;;27.90;17.63;;;7.60;95.30;;;;;;5115652;28;20180;-91
2022/01/29 07:11:04;;;;;;;41.13;26.60;;;7.60;95.30;;;;;;5117063;28;20190;-91
2022/01/29 07:13:30;;;;;;;41.73;27.97;;;7.60;95.20;;;;;;5115615;28;20208;-91
2022/01/29 07:15:56;;;;;;;47.57;29.47;;;7.60;95.30;;;;;;5115776;28;20596;-92
2022/01/29 07:18:21;;;;;;;38.13;24.83;;;7.50;95.30;;;;;;5115767;28;20272;-92
2022/01/29 07:20:48;;;;;;;35.87;26.73;;;7.60;95.30;;;;;;5116733;28;20554;-91
2022/01/29 07:23:14;;;;;;;41.50;28.83;;;7.60;95.30;;;;;;5116957;28;20253;-92
2022/01/29 07:25:39;;;;;;;38.57;25.50;;;7.70;95.30;;;;;;5115530;28;20275;-91
2022/01/29 07:28:05;;;;;;;31.13;21.67;;;7.70;95.30;;;;;;5117102;28;20587;-91
2022/01/29 07:30:30;;;;;;;35.80;25.03;;;7.70;95.20;;;;;;5115510;28;20193;-91
2022/01/29 07:32:56;;;;;;;31.80;23.53;;;7.70;95.20;;;;;;5115442;28;20325;-91
2022/01/29 07:35:21;;;;;;;26.40;18.77;;;7.70;95.20;;;;;;5115105;28;20205;-89
2022/01/29 07:37:47;;;;;;;30.40;21.63;;;7.60;95.20;;;;;;5116447;28;20706;-88
2022/01/29 07:40:13;;;;;;;16.23;11.80;;;7.70;95.30;;;;;;5116313;28;20198;-89
2022/01/29 07:42:41;;;;;;;23.27;16.50;;;7.60;95.40;;;;;;5116175;28;20174;-91
2022/01/29 07:45:07;;;;;;;20.30;15.53;;;7.60;95.40;;;;;;5117113;28;20272;-92
2022/01/29 07:47:36;;;;;;;20.03;13.03;;;7.60;95.40;;;;;;5117263;28;20214;-91
2022/01/29 07:50:02;;;;;;;17.33;11.23;;;7.60;95.50;;;;;;5115097;28;20198;-90
2022/01/29 07:52:28;;;;;;;22.03;17.57;;;7.70;95.50;;;;;;5115023;28;20750;-91
2022/01/29 07:54:54;;;;;;;18.77;11.00;;;7.70;95.50;;;;;;5115725;28;20174;-90
2022/01/29 07:57:19;;;;;;;25.33;16.47;;;7.70;95.50;;;;;;5116963;28;20197;-91
2022/01/29 07:59:45;;;;;;;20.53;13.77;;;7.60;95.40;;;;;;5116295;28;20667;-92
2022/01/29 08:02:11;;;;;;;24.97;18.27;;;7.70;95.40;;;;;;5116042;28;20235;-92
2022/01/29 08:04:37;;;;;;;12.53;9.50;;;7.70;95.40;;;;;;5115951;28;20170;-91
2022/01/29 08:07:02;;;;;;;23.50;17.63;;;7.70;95.40;;;;;;5116369;28;20631;-91
2022/01/29 08:09:28;;;;;;;18.10;13.47;;;7.70;95.40;;;;;;5115877;28;20177;-92
2022/01/29 08:11:54;;;;;;;18.47;14.77;;;7.70;95.40;;;;;;5114919;28;20197;-91
2022/01/29 08:14:19;;;;;;;21.90;15.57;;;7.70;95.40;;;;;;5114698;28;20184;-91
2022/01/29 08:16:45;;;;;;;19.70;15.20;;;7.70;95.40;;;;;;5114648;28;20178;-92
2022/01/29 08:19:10;;;;;;;17.27;12.43;;;7.80;95.40;;;;;;5115835;28;20178;-91
2022/01/29 08:21:38;;;;;;;17.93;13.07;;;7.80;95.40;;;;;;5114270;28;20194;-92
2022/01/29 08:24:06;;;;;;;21.97;15.03;;;7.80;95.30;;;;;;5116993;28;20170;-92
2022/01/29 08:26:31;;;;;;;28.77;19.63;;;7.80;95.30;;;;;;5114600;28;20188;-92
2022/01/29 08:28:57;;;;;;;18.00;14.67;;;7.70;95.40;;;;;;5114252;28;20182;-91
2022/01/29 08:31:22;;;;;;;19.10;12.23;;;7.80;95.50;;;;;;5114323;28;20281;-92
2022/01/29 08:33:48;;;;;;;21.53;16.30;;;7.80;95.50;;;;;;5114202;28;20584;-91
2022/01/29 08:36:13;;;;;;;23.77;17.30;;;7.80;95.50;;;;;;5114300;28;20631;-92
2022/01/29 08:38:39;;;;;;;27.93;18.00;;;7.80;95.40;;;;;;5114059;28;20713;-92
2022/01/29 08:41:05;;;;;;;16.27;14.13;;;7.80;95.40;;;;;;5114640;28;20198;-92
2022/01/29 08:43:32;;;;;;;32.40;22.00;;;7.80;95.50;;;;;;5115577;28;20177;-92
2022/01/29 08:45:59;;;;;;;24.67;16.13;;;7.80;95.40;;;;;;5116834;28;20199;-93
2022/01/29 08:48:24;;;;;;;26.30;16.47;;;7.80;95.40;;;;;;5115001;28;20178;-92
2022/01/29 08:50:50;;;;;;;22.50;15.53;;;7.80;95.40;;;;;;5115460;28;20204;-91
2022/01/29 08:53:17;;;;;;;23.17;16.57;;;7.80;95.40;;;;;;5114927;28;20209;-92
2022/01/29 08:55:43;;;;;;;22.90;16.70;;;7.80;95.40;;;;;;5118331;28;20182;-91
2022/01/29 08:58:09;;;;;;;21.97;15.53;;;7.80;95.40;;;;;;5114329;28;20265;-92
2022/01/29 09:00:37;;;;;;;24.33;14.00;;;7.90;95.30;;;;;;5114176;28;20605;-91
2022/01/29 09:03:03;;;;;;;17.83;12.83;;;7.80;95.30;;;;;;5115614;28;20154;-92
2022/01/29 09:05:28;;;;;;;23.57;15.23;;;7.90;95.20;;;;;;5114840;28;20184;-92
2022/01/29 09:07:54;;;;;;;17.13;11.63;;;7.90;95.20;;;;;;5115059;28;20170;-92
2022/01/29 09:10:20;;;;;;;14.50;10.43;;;8.00;95.10;;;;;;5113738;28;20247;-92
2022/01/29 09:12:45;;;;;;;21.00;14.60;;;7.90;95.00;;;;;;5115225;28;20200;-92
2022/01/29 09:15:11;;;;;;;22.03;15.23;;;8.00;95.00;;;;;;5113845;28;20170;-91
2022/01/29 09:17:39;;;;;;;20.40;12.43;;;8.00;95.00;;;;;;5113617;28;20166;-92
2022/01/29 09:20:09;;;;;;;16.83;11.80;;;8.00;95.00;;;;;;5114464;28;20190;-92
2022/01/29 09:22:34;;;;;;;21.10;12.37;;;8.00;95.00;;;;;;5116353;27;20219;-92
2022/01/29 09:25:00;;;;;;;17.17;11.37;;;8.10;94.90;;;;;;5113473;28;20264;-92
2022/01/29 09:27:25;;;;;;;24.27;16.07;;;8.00;95.00;;;;;;5114026;28;20180;-92
2022/01/29 09:29:51;;;;;;;18.70;13.33;;;8.00;95.00;;;;;;5113145;28;20315;-90
2022/01/29 09:32:17;;;;;;;15.73;12.27;;;8.00;95.10;;;;;;5114130;28;20194;-91
2022/01/29 09:34:42;;;;;;;18.90;13.67;;;8.10;95.10;;;;;;5116202;28;20176;-92
2022/01/29 09:37:08;;;;;;;22.93;15.00;;;8.00;95.00;;;;;;5114616;28;20177;-91
2022/01/29 09:39:33;;;;;;;24.10;15.10;;;8.10;95.00;;;;;;5112929;28;20174;-92
2022/01/29 09:42:02;;;;;;;22.93;17.03;;;8.10;95.00;;;;;;5112935;28;20197;-91
2022/01/29 09:44:28;;;;;;;12.90;7.70;;;8.00;95.00;;;;;;5113453;28;20257;-91
2022/01/29 09:46:54;;;;;;;20.47;12.57;;;8.10;95.00;;;;;;5112844;28;20193;-91
2022/01/29 09:49:20;;;;;;;16.70;10.37;;;8.10;95.00;;;;;;5112704;28;20670;-91
2022/01/29 09:51:45;;;;;;;17.73;12.53;;;8.10;94.90;;;;;;5112582;28;20214;-90
2022/01/29 09:54:11;;;;;;;12.63;9.33;;;8.20;94.90;;;;;;5112851;28;20200;-91
2022/01/29 09:56:36;;;;;;;19.00;13.63;;;8.10;94.90;;;;;;5113038;28;20170;-91
2022/01/29 09:59:03;;;;;;;21.13;12.70;;;8.10;95.00;;;;;;5113675;28;20181;-92
2022/01/29 10:01:29;;;;;;;21.50;14.23;;;8.20;95.00;;;;;;5113971;28;20265;-91
2022/01/29 10:04:03;;;;;;;15.50;11.63;;;8.10;95.00;;;;;;5112853;28;20521;-90
2022/01/29 10:06:29;;;;;;;12.77;9.47;;;8.20;95.00;;;;;;5114572;28;20715;-91
2022/01/29 10:08:59;;;;;;;14.40;11.00;;;8.30;94.80;;;;;;5113819;28;20194;-92
2022/01/29 10:11:27;;;;;;;7.87;5.93;;;8.20;94.80;;;;;;5114631;28;20178;-93
2022/01/29 10:14:00;;;;;;;17.73;10.70;;;8.20;94.80;;;;;;5114587;28;20224;-93
2022/01/29 10:16:27;;;;;;;11.60;10.17;;;8.20;94.80;;;;;;5118769;28;20184;-91
2022/01/29 10:19:12;;;;;;;14.17;9.97;;;8.30;94.80;;;;;;5115557;28;20174;-93
2022/01/29 10:21:47;;;;;;;10.30;8.00;;;8.20;94.80;;;;;;5116289;28;20663;-91
2022/01/29 10:24:19;;;;;;;12.70;8.67;;;8.20;94.80;;;;;;5114860;28;20189;-92
2022/01/29 10:26:48;;;;;;;15.60;10.33;;;8.30;94.80;;;;;;5117875;28;20182;-92
2022/01/29 10:29:19;;;;;;;16.83;10.93;;;8.30;94.80;;;;;;5113233;28;20182;-92
2022/01/29 10:31:50;;;;;;;12.50;9.10;;;8.30;94.90;;;;;;5112969;28;20198;-92
2022/01/29 10:34:25;;;;;;;10.00;6.63;;;8.30;94.80;;;;;;5112836;28;20210;-90
2022/01/29 10:37:15;;;;;;;14.37;10.37;;;8.30;94.80;;;;;;5117010;28;20696;-92
2022/01/29 10:39:58;;;;;;;13.77;9.97;;;8.30;94.80;;;;;;5117926;28;20193;-90
2022/01/29 10:42:42;;;;;;;12.13;9.23;;;8.30;94.70;;;;;;5124872;28;20205;-92
2022/01/29 10:45:10;;;;;;;16.40;11.07;;;8.40;94.60;;;;;;5120448;28;20173;-93
2022/01/29 10:48:00;;;;;;;16.63;9.67;;;8.40;94.50;;;;;;5122556;28;20162;-92
2022/01/29 10:50:32;;;;;;;16.10;11.50;;;8.30;94.50;;;;;;5124763;28;20227;-93
2022/01/29 10:53:17;;;;;;;15.33;11.13;;;8.50;94.30;;;;;;5123663;28;20209;-92
2022/01/29 10:56:01;;;;;;;12.97;9.03;;;8.40;94.30;;;;;;5122625;27;20619;-91
2022/01/29 10:58:26;;;;;;;14.43;8.17;;;8.50;93.90;;;;;;5115983;28;20231;-90
2022/01/29 11:01:11;;;;;;;12.87;8.37;;;8.60;93.70;;;;;;5116038;28;20206;-90
2022/01/29 11:03:40;;;;;;;16.63;10.77;;;8.50;93.60;;;;;;5116700;28;20643;-91
2022/01/29 11:06:09;;;;;;;14.13;9.57;;;8.60;93.50;;;;;;5117199;28;20194;-92
2022/01/29 11:08:39;;;;;;;13.80;9.47;;;8.60;93.50;;;;;;5116756;28;20185;-91
2022/01/29 11:11:05;;;;;;;10.13;6.93;;;8.70;93.40;;;;;;5116126;28;20189;-91
2022/01/29 11:13:31;;;;;;;14.70;8.50;;;8.60;93.30;;;;;;5116490;28;20237;-91
2022/01/29 11:15:58;;;;;;;11.17;7.03;;;8.70;93.10;;;;;;5117842;28;20177;-91
2022/01/29 11:18:32;;;;;;;11.83;6.93;;;8.70;92.80;;;;;;5117388;28;20174;-90
2022/01/29 11:21:00;;;;;;;10.83;7.97;;;8.70;92.60;;;;;;5117573;28;20241;-91
2022/01/29 11:23:26;;;;;;;12.77;7.20;;;8.80;92.30;;;;;;5117827;28;20170;-92
2022/01/29 11:25:54;;;;;;;15.07;9.10;;;8.80;92.20;;;;;;5119480;28;20178;-92
2022/01/29 11:28:22;;;;;;;9.10;7.03;;;8.80;92.30;;;;;;5117435;28;20174;-92
2022/01/29 12:51:15;;;;;;;5.57;3.60;;;9.40;88.90;;;;;;5017762;28;20236;-92
2022/01/29 15:13:56;;;;;;;14.03;3.43;;;10.40;84.00;;;;;;5394799;23;20260;-93
2022/01/29 15:16:27;;;;;;;17.77;3.80;;;10.40;84.40;;;;;;5013390;28;20220;-92
2022/01/29 15:21:50;;;;;;;13.60;3.03;;;10.50;83.10;;;;;;5411909;23;20245;-92
2022/01/29 15:24:19;;;;;;;10.17;2.50;;;10.50;82.50;;;;;;5013143;28;20258;-93
2022/01/29 15:26:44;;;;;;;12.23;2.90;;;10.50;82.20;;;;;;5012899;28;20181;-92
2022/01/29 15:29:10;;;;;;;11.97;3.13;;;10.50;82.40;;;;;;5011593;28;20186;-91
2022/01/29 15:31:36;;;;;;;15.43;3.50;;;10.60;80.70;;;;;;5014600;28;20325;-93
2022/01/29 15:37:12;;;;;;;10.80;3.50;;;10.50;81.90;;;;;;5392517;23;20236;-92
2022/01/29 15:39:41;;;;;;;20.30;4.80;;;10.40;82.30;;;;;;4977029;28;20194;-93
2022/01/29 15:44:42;;;;;;;16.43;3.73;;;10.40;82.70;;;;;;4250228;26;20574;-91
2022/01/29 15:47:08;;;;;;;21.70;4.17;;;10.40;82.00;;;;;;5016937;28;20173;-92
2022/01/29 15:49:43;;;;;;;19.77;4.17;;;10.40;82.20;;;;;;5025574;28;20161;-93
2022/01/29 15:52:34;;;;;;;27.00;5.53;;;10.30;82.10;;;;;;5009499;28;20180;-94
2022/01/29 15:55:03;;;;;;;29.50;5.97;;;10.20;82.70;;;;;;5082241;23;20229;-93
2022/01/29 15:57:55;;;;;;;24.43;6.50;;;10.20;82.40;;;;;;5033435;28;20192;-93
2022/01/29 16:00:47;;;;;;;38.13;6.87;;;10.20;81.80;;;;;;5035876;28;20190;-93
2022/01/29 16:03:13;;;;;;;28.43;6.10;;;10.20;80.70;;;;;;5031748;28;20217;-93
2022/01/29 16:05:45;;;;;;;24.60;5.47;;;10.20;80.20;;;;;;5107639;23;20236;-93
2022/01/29 16:08:20;;;;;;;13.57;4.13;;;10.00;80.30;;;;;;5035198;28;20172;-93
2022/01/29 16:10:46;;;;;;;20.77;5.60;;;10.00;80.70;;;;;;5033536;28;20191;-93
2022/01/29 16:13:58;;;;;;;23.27;5.10;;;10.00;81.00;;;;;;5057897;23;20233;-92
2022/01/29 16:16:07;;;;;;;20.47;4.30;;;9.90;80.50;;;;;;5042288;22;20671;-90
2022/01/29 16:26:16;;;;;;;35.87;6.77;;;9.80;81.10;;;;;;5028122;28;20215;-93
2022/01/29 16:31:23;;;;;;;27.60;6.30;;;9.80;81.50;;;;;;4001796;22;20256;-92
2022/01/29 16:36:24;;;;;;;25.03;5.97;;;9.70;81.20;;;;;;5225228;23;20252;-92
2022/01/29 16:38:53;;;;;;;25.40;5.87;;;9.60;81.50;;;;;;5011208;28;20212;-92
2022/01/29 16:41:32;;;;;;;36.93;8.33;;;9.70;80.80;;;;;;5013042;28;20197;-92
2022/01/29 16:44:16;;;;;;;;;;;;;;;;;;;;;
2022/01/29 16:46:45;;;;;;;35.43;6.70;;;9.50;81.60;;;;;;5013353;28;20182;-93
2022/01/29 16:49:31;;;;;;;19.03;5.80;;;9.50;81.70;;;;;;5014672;28;20178;-91
2022/01/29 16:51:57;;;;;;;46.27;7.27;;;9.30;83.10;;;;;;5008474;28;20205;-89
2022/01/29 16:54:31;;;;;;;41.90;8.93;;;9.20;83.80;;;;;;4999948;28;20213;-92